Time;durP1;ratioP1;P1;durP2;ratioP2;P2;SDS_P1;SDS_P2;PMS_P1;PMS_P2;Temp;Humidity;BMP_temperature;BMP_pressure;BME280_temperature;BME280_humidity;BME280_pressure;Samples;Min_cycle;Max_cycle;Signal;HPM_P1;HPM_P2
2023/12/21 00:00:51;;;;;;;182.60;167.35;;;26.30;99.90;;;;;;5016078;28;20053;-64
2023/12/21 00:03:18;;;;;;;189.40;173.20;;;26.30;99.90;;;;;;5016007;28;20033;-64
2023/12/21 00:05:44;;;;;;;213.18;194.38;;;26.30;99.90;;;;;;5015743;28;20084;-65
2023/12/21 00:08:11;;;;;;;220.13;200.95;;;26.30;99.90;;;;;;5015861;28;20022;-64
2023/12/21 00:10:37;;;;;;;228.32;207.85;;;26.30;99.90;;;;;;5015880;28;20033;-64
2023/12/21 00:13:04;;;;;;;247.55;224.43;;;26.40;99.90;;;;;;5015683;28;20025;-64
2023/12/21 00:15:31;;;;;;;196.95;179.65;;;26.30;99.90;;;;;;5015861;28;20034;-64
2023/12/21 00:17:57;;;;;;;256.02;232.27;;;26.30;99.90;;;;;;5015562;28;20018;-64
2023/12/21 00:20:24;;;;;;;244.23;222.05;;;26.30;99.90;;;;;;5015803;28;20471;-63
2023/12/21 00:22:50;;;;;;;256.98;233.10;;;26.30;99.90;;;;;;5015530;28;20029;-64
2023/12/21 00:25:17;;;;;;;233.75;212.65;;;26.30;99.90;;;;;;5015717;28;20470;-64
2023/12/21 00:27:44;;;;;;;229.57;209.15;;;26.20;99.90;;;;;;5015528;28;20034;-65
2023/12/21 00:30:10;;;;;;;266.15;241.70;;;26.20;99.90;;;;;;5015305;28;20471;-64
2023/12/21 00:32:37;;;;;;;265.23;240.68;;;26.20;99.90;;;;;;5015407;28;20030;-64
2023/12/21 00:35:04;;;;;;;269.50;244.48;;;26.10;99.90;;;;;;5014333;28;20021;-64
2023/12/21 00:37:36;;;;;;;247.50;224.85;;;26.20;99.90;;;;;;5014749;28;20475;-64
2023/12/21 00:40:04;;;;;;;257.08;233.52;;;26.20;99.90;;;;;;5015112;28;20463;-64
2023/12/21 00:42:36;;;;;;;241.13;218.98;;;26.20;99.90;;;;;;5013298;28;20041;-62
2023/12/21 00:45:06;;;;;;;277.27;251.35;;;26.20;99.90;;;;;;5013368;28;20029;-64
2023/12/21 00:47:33;;;;;;;275.85;250.15;;;26.20;99.90;;;;;;5014445;28;20025;-63
2023/12/21 00:49:59;;;;;;;226.02;205.88;;;26.20;99.90;;;;;;5014265;28;20062;-63
2023/12/21 00:52:26;;;;;;;227.63;207.27;;;26.30;99.90;;;;;;5014877;28;20448;-64
2023/12/21 00:54:52;;;;;;;197.00;180.10;;;26.30;99.90;;;;;;5014809;28;20033;-64
2023/12/21 00:57:19;;;;;;;226.43;206.35;;;26.30;99.90;;;;;;5014808;28;20029;-64
2023/12/21 00:59:45;;;;;;;214.13;195.27;;;26.30;99.90;;;;;;5014929;28;20133;-64
2023/12/21 01:02:12;;;;;;;215.38;196.38;;;26.30;99.90;;;;;;5014826;28;20025;-65
2023/12/21 01:04:39;;;;;;;238.00;215.95;;;26.30;99.90;;;;;;5014685;28;20021;-63
2023/12/21 01:07:05;;;;;;;216.35;197.52;;;26.40;99.90;;;;;;5014684;28;20395;-64
2023/12/21 01:09:32;;;;;;;244.65;222.20;;;26.40;99.90;;;;;;5014537;28;20101;-64
2023/12/21 01:11:58;;;;;;;234.02;213.02;;;26.50;99.90;;;;;;5014678;28;20065;-63
2023/12/21 01:14:25;;;;;;;229.70;209.65;;;26.50;99.90;;;;;;5014505;28;20063;-63
2023/12/21 01:16:51;;;;;;;251.93;229.43;;;26.50;99.90;;;;;;5024372;28;20061;-64
2023/12/21 01:19:18;;;;;;;252.90;229.90;;;26.50;99.90;;;;;;5021386;28;20033;-64
2023/12/21 01:21:44;;;;;;;277.55;251.65;;;26.50;99.90;;;;;;5032038;28;20014;-64
2023/12/21 01:24:11;;;;;;;289.58;262.95;;;26.50;99.90;;;;;;5023160;28;20467;-64
2023/12/21 01:26:37;;;;;;;266.85;242.27;;;26.50;99.90;;;;;;5014465;28;20022;-63
2023/12/21 01:29:04;;;;;;;269.05;244.32;;;26.60;99.90;;;;;;5014325;28;20077;-64
2023/12/21 01:31:30;;;;;;;228.38;208.05;;;26.60;99.90;;;;;;5014797;28;20466;-64
2023/12/21 01:33:57;;;;;;;226.30;206.38;;;26.60;99.90;;;;;;5014260;28;20037;-64
2023/12/21 01:36:25;;;;;;;234.93;214.20;;;26.70;99.90;;;;;;5014124;28;20376;-63
2023/12/21 01:38:51;;;;;;;193.30;176.57;;;26.70;99.90;;;;;;5014613;28;20066;-63
2023/12/21 01:41:18;;;;;;;217.75;198.75;;;26.80;99.90;;;;;;5014335;28;20441;-64
2023/12/21 01:43:45;;;;;;;196.70;179.75;;;26.80;99.90;;;;;;5014096;28;20390;-64
2023/12/21 01:46:11;;;;;;;201.48;183.85;;;26.80;99.90;;;;;;5014080;28;20029;-63
2023/12/21 01:48:39;;;;;;;205.63;187.80;;;26.70;99.90;;;;;;5013930;28;20026;-64
2023/12/21 01:51:08;;;;;;;209.52;191.20;;;26.70;99.90;;;;;;5014233;28;20042;-64
2023/12/21 01:53:36;;;;;;;186.68;170.43;;;26.70;99.90;;;;;;5013900;28;20037;-64
2023/12/21 01:56:03;;;;;;;202.82;184.85;;;26.70;99.90;;;;;;5013967;28;20061;-64
2023/12/21 01:58:31;;;;;;;219.98;200.65;;;26.80;99.90;;;;;;5013788;28;20029;-64
2023/12/21 02:00:59;;;;;;;176.45;161.63;;;26.70;99.90;;;;;;5014210;28;20101;-63
2023/12/21 02:03:28;;;;;;;177.18;162.45;;;26.70;99.90;;;;;;5013835;28;20037;-64
2023/12/21 02:05:54;;;;;;;204.60;186.95;;;26.70;99.90;;;;;;5013632;28;20383;-64
2023/12/21 02:08:21;;;;;;;183.75;168.27;;;26.80;99.90;;;;;;5013727;28;20069;-64
2023/12/21 02:10:48;;;;;;;187.77;171.40;;;26.80;99.90;;;;;;5013716;28;20030;-64
2023/12/21 02:13:16;;;;;;;194.27;177.48;;;26.80;99.90;;;;;;5013626;28;20486;-63
2023/12/21 02:15:42;;;;;;;176.88;161.82;;;26.90;99.90;;;;;;5013925;28;20434;-65
2023/12/21 02:18:11;;;;;;;157.68;144.18;;;26.90;99.90;;;;;;5013938;28;20018;-63
2023/12/21 02:20:39;;;;;;;195.70;178.80;;;26.90;99.90;;;;;;5013594;28;20022;-65
2023/12/21 02:23:06;;;;;;;172.70;158.07;;;26.90;99.90;;;;;;5014001;28;20387;-62
2023/12/21 02:25:33;;;;;;;191.25;175.02;;;27.00;99.90;;;;;;5024098;28;20064;-63
2023/12/21 02:27:59;;;;;;;182.63;167.00;;;26.90;99.90;;;;;;5022128;28;20029;-63
2023/12/21 02:30:26;;;;;;;186.02;169.57;;;27.00;99.90;;;;;;5023355;28;20018;-63
2023/12/21 02:32:52;;;;;;;154.95;141.98;;;27.00;99.90;;;;;;5024267;28;20030;-63
2023/12/21 02:35:19;;;;;;;200.82;183.13;;;27.00;99.90;;;;;;5021944;28;20026;-63
2023/12/21 02:37:45;;;;;;;188.65;172.63;;;27.10;99.90;;;;;;5031363;28;20159;-64
2023/12/21 02:40:12;;;;;;;193.15;176.25;;;27.10;99.90;;;;;;5045650;23;20511;-64
2023/12/21 02:42:38;;;;;;;162.30;148.15;;;27.10;99.90;;;;;;5014756;28;20018;-62
2023/12/21 02:45:05;;;;;;;186.50;170.57;;;27.10;99.90;;;;;;5014817;28;20034;-63
2023/12/21 02:47:32;;;;;;;169.43;155.00;;;27.20;99.90;;;;;;5014889;28;20447;-64
2023/12/21 02:49:58;;;;;;;173.07;158.38;;;27.10;99.90;;;;;;5014650;28;20043;-66
2023/12/21 02:52:25;;;;;;;194.57;177.52;;;27.20;99.90;;;;;;5014100;28;20022;-65
2023/12/21 02:54:51;;;;;;;161.25;147.05;;;27.30;99.90;;;;;;5013254;28;20108;-64
2023/12/21 02:57:18;;;;;;;156.77;143.73;;;27.30;99.90;;;;;;5014752;28;20022;-65
2023/12/21 02:59:45;;;;;;;137.00;125.82;;;27.30;99.90;;;;;;5014774;28;20483;-64
2023/12/21 03:02:11;;;;;;;164.18;150.07;;;27.30;99.90;;;;;;5017849;28;20479;-64
2023/12/21 03:04:38;;;;;;;162.48;148.85;;;27.30;99.90;;;;;;5018674;28;20470;-64
2023/12/21 03:07:04;;;;;;;155.63;142.48;;;27.30;99.90;;;;;;5018586;28;20022;-65
2023/12/21 03:09:31;;;;;;;173.55;158.88;;;27.30;99.90;;;;;;5017234;28;20030;-64
2023/12/21 03:11:57;;;;;;;126.05;115.80;;;27.30;99.90;;;;;;5018100;28;20022;-64
2023/12/21 03:14:24;;;;;;;166.57;152.95;;;27.30;99.90;;;;;;5018464;28;20069;-64
2023/12/21 03:16:50;;;;;;;139.75;128.27;;;27.40;99.90;;;;;;5018807;28;20089;-65
2023/12/21 03:19:17;;;;;;;178.93;163.90;;;27.50;99.90;;;;;;5018161;28;20057;-64
2023/12/21 03:21:43;;;;;;;149.85;137.57;;;27.50;99.90;;;;;;5018171;28;20101;-65
2023/12/21 03:24:10;;;;;;;172.70;157.88;;;27.40;99.90;;;;;;5018643;28;20419;-65
2023/12/21 03:26:36;;;;;;;163.07;149.40;;;27.40;99.90;;;;;;5018475;28;20026;-64
2023/12/21 03:29:03;;;;;;;140.38;128.85;;;27.40;99.90;;;;;;5016315;28;20054;-65
2023/12/21 03:31:29;;;;;;;168.40;154.32;;;27.40;99.90;;;;;;5016442;28;20441;-65
2023/12/21 03:33:56;;;;;;;161.30;147.68;;;27.40;99.90;;;;;;5016241;28;20027;-65
2023/12/21 03:36:22;;;;;;;147.32;135.35;;;27.40;99.90;;;;;;5015664;28;20101;-65
2023/12/21 03:38:49;;;;;;;158.02;144.70;;;27.50;99.90;;;;;;5016090;28;20041;-66
2023/12/21 03:41:15;;;;;;;155.35;142.25;;;27.50;99.90;;;;;;5015714;28;20038;-66
2023/12/21 03:43:42;;;;;;;154.60;141.88;;;27.60;99.90;;;;;;5015550;28;20033;-64
2023/12/21 03:46:09;;;;;;;138.05;126.40;;;27.60;99.90;;;;;;5015801;28;20018;-65
2023/12/21 03:48:36;;;;;;;155.48;142.52;;;27.60;99.90;;;;;;5015592;28;20036;-64
2023/12/21 03:51:02;;;;;;;141.30;129.80;;;27.70;99.90;;;;;;5015825;28;20101;-65
2023/12/21 03:53:29;;;;;;;165.85;152.07;;;27.80;99.90;;;;;;5016026;28;20036;-65
2023/12/21 03:55:55;;;;;;;150.60;138.18;;;27.70;99.90;;;;;;5015714;28;20081;-65
2023/12/21 03:58:22;;;;;;;157.13;143.80;;;27.80;99.90;;;;;;5015649;28;20030;-65
2023/12/21 04:00:48;;;;;;;174.57;159.77;;;27.80;99.90;;;;;;4998218;28;20027;-64
2023/12/21 04:03:15;;;;;;;139.00;127.68;;;27.80;99.90;;;;;;4996800;28;20041;-66
2023/12/21 04:05:41;;;;;;;133.13;122.28;;;27.80;99.90;;;;;;4996249;28;20022;-64
2023/12/21 04:08:08;;;;;;;152.52;139.98;;;27.90;99.90;;;;;;4996270;28;20022;-64
2023/12/21 04:10:35;;;;;;;158.38;145.15;;;27.90;99.90;;;;;;4990514;28;20061;-65
2023/12/21 04:13:01;;;;;;;175.43;160.30;;;28.00;99.90;;;;;;4985080;28;20019;-63
2023/12/21 04:15:28;;;;;;;172.73;157.80;;;28.00;99.90;;;;;;4988982;28;20027;-65
2023/12/21 04:17:54;;;;;;;161.82;147.63;;;28.10;99.90;;;;;;4984769;28;20051;-65
2023/12/21 04:20:21;;;;;;;131.27;120.50;;;28.10;99.90;;;;;;4986401;28;20458;-65
2023/12/21 04:22:47;;;;;;;150.07;136.77;;;28.20;99.90;;;;;;4986132;28;20058;-65
2023/12/21 04:25:14;;;;;;;143.68;131.07;;;28.20;99.90;;;;;;4985135;28;20030;-65
2023/12/21 04:27:40;;;;;;;168.45;154.20;;;28.20;99.90;;;;;;4986317;28;20490;-64
2023/12/21 04:30:08;;;;;;;169.20;155.15;;;28.20;99.90;;;;;;4988523;28;20026;-67
2023/12/21 04:32:34;;;;;;;160.32;146.65;;;28.30;99.90;;;;;;4995674;28;20161;-66
2023/12/21 04:35:01;;;;;;;182.02;166.57;;;28.30;99.90;;;;;;4995583;28;20037;-66
2023/12/21 04:37:27;;;;;;;166.02;151.88;;;28.30;99.90;;;;;;4995477;28;20088;-62
2023/12/21 04:39:54;;;;;;;153.38;140.45;;;28.40;99.90;;;;;;4995274;28;20057;-62
2023/12/21 04:42:20;;;;;;;152.50;139.80;;;28.40;99.90;;;;;;4995594;28;20161;-63
2023/12/21 04:44:46;;;;;;;142.65;130.70;;;28.50;99.90;;;;;;4995345;28;20061;-65
2023/12/21 04:47:13;;;;;;;160.82;147.38;;;28.50;99.90;;;;;;4995436;28;20038;-66
2023/12/21 04:49:39;;;;;;;155.95;143.02;;;28.60;99.90;;;;;;4995350;28;20026;-64
2023/12/21 04:52:06;;;;;;;149.30;136.60;;;28.60;99.90;;;;;;4995160;28;20030;-66
2023/12/21 04:54:33;;;;;;;159.77;146.35;;;28.70;99.90;;;;;;4995539;28;20105;-64
2023/12/21 04:56:59;;;;;;;172.63;157.60;;;28.80;99.90;;;;;;4995463;28;20026;-64
2023/12/21 04:59:28;;;;;;;170.18;155.68;;;28.90;99.90;;;;;;4995102;28;20045;-63
2023/12/21 05:01:56;;;;;;;181.40;165.90;;;28.90;99.90;;;;;;4995446;28;20073;-66
2023/12/21 05:04:23;;;;;;;174.27;159.50;;;29.00;99.90;;;;;;4995166;28;20057;-63
2023/12/21 05:06:49;;;;;;;159.00;145.75;;;29.00;99.90;;;;;;4992526;28;20053;-66
2023/12/21 05:09:16;;;;;;;145.95;134.07;;;28.90;99.90;;;;;;4986082;28;20034;-68
2023/12/21 05:11:42;;;;;;;127.40;117.45;;;28.80;99.90;;;;;;4985199;28;20034;-63
2023/12/21 05:14:09;;;;;;;117.20;106.68;;;28.50;99.90;;;;;;4983822;28;20031;-64
2023/12/21 05:16:39;;;;;;;85.18;77.13;;;28.30;99.90;;;;;;4985749;28;20026;-64
2023/12/21 05:19:06;;;;;;;133.18;121.40;;;28.10;99.90;;;;;;4986286;28;20031;-64
2023/12/21 05:21:33;;;;;;;122.90;111.95;;;27.80;99.90;;;;;;4984502;28;20045;-63
2023/12/21 05:24:00;;;;;;;115.57;105.63;;;27.60;99.90;;;;;;4983900;28;20014;-64
2023/12/21 05:26:26;;;;;;;106.75;97.68;;;27.50;99.90;;;;;;4986345;28;20027;-67
2023/12/21 05:28:57;;;;;;;118.15;108.15;;;27.30;99.90;;;;;;4997713;28;20030;-64
2023/12/21 05:31:24;;;;;;;104.95;96.18;;;27.30;99.90;;;;;;4989762;28;20388;-64
2023/12/21 05:33:52;;;;;;;102.32;93.88;;;27.20;99.90;;;;;;4984571;28;20504;-65
2023/12/21 05:36:21;;;;;;;77.72;71.25;;;27.30;99.90;;;;;;4983613;28;20031;-65
2023/12/21 05:38:48;;;;;;;103.00;94.30;;;27.40;99.90;;;;;;4983700;28;20468;-67
2023/12/21 05:41:15;;;;;;;96.63;88.75;;;27.40;99.90;;;;;;5000083;28;20053;-66
2023/12/21 05:43:42;;;;;;;117.75;107.90;;;27.40;99.90;;;;;;4991594;28;20088;-66
2023/12/21 05:46:09;;;;;;;116.03;106.25;;;27.50;99.90;;;;;;4983819;28;20027;-65
2023/12/21 05:48:36;;;;;;;96.68;88.80;;;27.50;99.90;;;;;;4984293;28;20034;-64
2023/12/21 05:51:03;;;;;;;128.38;116.72;;;27.50;99.90;;;;;;4982270;28;20042;-65
2023/12/21 05:53:32;;;;;;;122.18;111.32;;;27.40;99.90;;;;;;4983590;28;20055;-64
2023/12/21 05:55:59;;;;;;;91.53;83.32;;;27.30;99.90;;;;;;4983378;28;20073;-64
2023/12/21 05:58:26;;;;;;;109.63;100.60;;;27.30;99.90;;;;;;4984814;28;20023;-65
2023/12/21 06:00:54;;;;;;;109.68;100.85;;;27.30;99.90;;;;;;4983846;28;20055;-65
2023/12/21 06:03:21;;;;;;;93.47;86.05;;;27.30;99.90;;;;;;4983273;28;20026;-65
2023/12/21 06:05:49;;;;;;;84.80;77.78;;;27.40;99.90;;;;;;4983279;28;20432;-65
2023/12/21 06:08:15;;;;;;;85.47;78.93;;;27.40;99.90;;;;;;4983853;28;20027;-64
2023/12/21 06:10:42;;;;;;;83.40;76.63;;;27.40;99.90;;;;;;4984983;28;20038;-65
2023/12/21 06:13:08;;;;;;;108.75;100.05;;;27.30;99.90;;;;;;4983366;28;20019;-65
2023/12/21 06:15:35;;;;;;;114.30;105.38;;;27.30;99.90;;;;;;4984187;28;20019;-64
2023/12/21 06:18:01;;;;;;;99.10;91.43;;;27.40;99.90;;;;;;4977324;28;20023;-66
2023/12/21 06:20:30;;;;;;;66.78;61.58;;;27.40;99.90;;;;;;4974332;28;20039;-67
2023/12/21 06:22:57;;;;;;;103.93;95.70;;;27.40;99.90;;;;;;4974583;28;20033;-67
2023/12/21 06:25:23;;;;;;;102.85;94.85;;;27.50;99.90;;;;;;4974610;28;20019;-64
2023/12/21 06:27:49;;;;;;;78.15;72.15;;;27.50;99.90;;;;;;4974293;28;20106;-66
2023/12/21 06:30:16;;;;;;;103.22;94.70;;;27.50;99.90;;;;;;4974428;28;20094;-66
2023/12/21 06:32:42;;;;;;;93.13;85.65;;;27.50;99.90;;;;;;4992130;28;20042;-66
2023/12/21 06:35:09;;;;;;;107.38;98.95;;;27.60;99.90;;;;;;4997503;28;20023;-66
2023/12/21 06:37:35;;;;;;;111.43;102.35;;;27.60;99.90;;;;;;5007916;28;20494;-66
2023/12/21 06:40:04;;;;;;;109.40;100.63;;;27.60;99.90;;;;;;4988481;28;20070;-66
2023/12/21 06:42:31;;;;;;;111.35;102.22;;;27.70;99.90;;;;;;4988449;28;20019;-65
2023/12/21 06:44:57;;;;;;;86.25;79.30;;;27.70;99.90;;;;;;4987084;28;20098;-64
2023/12/21 06:47:24;;;;;;;113.95;104.43;;;27.80;99.90;;;;;;4987189;28;20029;-65
2023/12/21 06:49:50;;;;;;;118.57;108.88;;;27.90;99.90;;;;;;4990176;28;20031;-63
2023/12/21 06:52:17;;;;;;;118.50;108.82;;;27.90;99.90;;;;;;4992165;28;20110;-64
2023/12/21 06:54:43;;;;;;;84.30;77.38;;;27.90;99.90;;;;;;4992271;28;20027;-66
2023/12/21 06:57:10;;;;;;;113.25;103.82;;;28.00;99.90;;;;;;4992213;28;20039;-65
2023/12/21 06:59:37;;;;;;;112.25;102.63;;;28.00;99.90;;;;;;4991855;28;20534;-65
2023/12/21 07:02:03;;;;;;;106.55;97.88;;;27.90;99.90;;;;;;4992672;28;20116;-65
2023/12/21 07:04:30;;;;;;;107.25;98.43;;;28.00;99.90;;;;;;4990228;28;20397;-64
2023/12/21 07:06:58;;;;;;;98.18;90.30;;;28.00;99.90;;;;;;4989535;28;20125;-65
2023/12/21 07:09:24;;;;;;;104.75;96.32;;;28.00;99.90;;;;;;4990167;28;20495;-65
2023/12/21 07:11:51;;;;;;;102.43;94.10;;;28.00;99.90;;;;;;4984853;28;20026;-66
2023/12/21 07:14:17;;;;;;;95.53;87.60;;;28.00;99.90;;;;;;4983646;28;20103;-69
2023/12/21 07:16:44;;;;;;;113.47;104.38;;;28.10;99.90;;;;;;4988171;28;20121;-66
2023/12/21 07:19:10;;;;;;;71.28;65.30;;;28.10;99.90;;;;;;4989644;28;20030;-67
2023/12/21 07:21:37;;;;;;;110.80;102.03;;;28.10;99.90;;;;;;4989058;28;20072;-69
2023/12/21 07:24:04;;;;;;;118.75;109.25;;;28.20;99.90;;;;;;4979633;28;20486;-68
2023/12/21 07:26:30;;;;;;;111.20;102.22;;;28.20;99.90;;;;;;4996937;28;20024;-70
2023/12/21 07:28:57;;;;;;;99.85;91.38;;;28.20;99.90;;;;;;4985941;28;20399;-70
2023/12/21 07:31:23;;;;;;;118.57;108.80;;;28.30;99.90;;;;;;4987728;28;20391;-70
2023/12/21 07:33:51;;;;;;;133.55;122.55;;;28.40;99.90;;;;;;4986505;28;20030;-69
2023/12/21 07:36:17;;;;;;;133.18;122.15;;;28.40;99.90;;;;;;4985897;28;20066;-69
2023/12/21 07:38:44;;;;;;;99.20;91.03;;;28.40;99.90;;;;;;4986781;28;20472;-68
2023/12/21 07:41:12;;;;;;;141.43;129.38;;;28.40;99.90;;;;;;4986950;28;20043;-68
2023/12/21 07:43:39;;;;;;;99.53;91.30;;;28.50;99.90;;;;;;4985636;28;20292;-65
2023/12/21 07:46:07;;;;;;;104.43;95.85;;;28.50;99.90;;;;;;4986452;28;20113;-66
2023/12/21 07:48:33;;;;;;;102.10;93.80;;;28.50;99.90;;;;;;4987453;28;20062;-65
2023/12/21 07:51:00;;;;;;;115.82;106.00;;;28.60;99.90;;;;;;4985432;28;20077;-65
2023/12/21 07:53:26;;;;;;;102.97;94.60;;;28.60;99.90;;;;;;4986883;28;20109;-65
2023/12/21 07:55:53;;;;;;;135.52;124.38;;;28.70;99.90;;;;;;4987143;28;20125;-66
2023/12/21 07:58:19;;;;;;;136.45;125.47;;;28.60;99.90;;;;;;4985143;28;20022;-67
2023/12/21 08:00:46;;;;;;;135.52;124.78;;;28.60;99.90;;;;;;4986734;28;20018;-65
2023/12/21 08:03:12;;;;;;;109.72;100.80;;;28.60;99.90;;;;;;4987082;28;20023;-66
2023/12/21 08:05:39;;;;;;;115.03;105.93;;;28.70;99.90;;;;;;4985354;28;20027;-66
2023/12/21 08:08:06;;;;;;;110.97;101.68;;;28.70;99.90;;;;;;4986438;28;20019;-65
2023/12/21 08:10:33;;;;;;;97.50;89.28;;;28.80;99.90;;;;;;4985741;28;20027;-63
2023/12/21 08:12:59;;;;;;;119.97;110.15;;;28.70;99.90;;;;;;4988115;28;20027;-63
2023/12/21 08:15:26;;;;;;;97.05;88.82;;;28.80;99.90;;;;;;4986236;28;20034;-67
2023/12/21 08:17:56;;;;;;;132.02;121.07;;;28.80;99.90;;;;;;4987210;28;20054;-67
2023/12/21 08:20:23;;;;;;;131.85;121.15;;;28.70;99.90;;;;;;4985347;28;20550;-68
2023/12/21 08:22:50;;;;;;;111.50;102.25;;;28.70;99.90;;;;;;4985521;28;20035;-68
2023/12/21 08:25:16;;;;;;;127.43;116.93;;;28.60;99.90;;;;;;4986998;28;20027;-68
2023/12/21 08:27:43;;;;;;;82.05;75.25;;;28.60;99.90;;;;;;4985538;28;20528;-66
2023/12/21 08:30:11;;;;;;;103.60;95.28;;;28.60;99.90;;;;;;4985357;28;20037;-68
2023/12/21 08:32:37;;;;;;;127.35;116.65;;;28.60;99.90;;;;;;4998686;28;20030;-69
2023/12/21 08:35:04;;;;;;;98.63;90.65;;;28.60;99.90;;;;;;4994488;28;20361;-68
2023/12/21 08:37:31;;;;;;;98.50;90.53;;;28.60;99.90;;;;;;4985009;28;20539;-69
2023/12/21 08:39:57;;;;;;;130.57;119.70;;;28.50;99.90;;;;;;4986164;28;20129;-68
2023/12/21 08:42:26;;;;;;;108.82;100.05;;;28.60;99.90;;;;;;4985140;28;20025;-69
2023/12/21 08:44:53;;;;;;;103.35;94.63;;;28.60;99.90;;;;;;4984452;28;20030;-66
2023/12/21 08:47:20;;;;;;;109.03;100.15;;;28.60;99.90;;;;;;4985028;28;20380;-67
2023/12/21 08:49:46;;;;;;;130.68;119.60;;;28.50;99.90;;;;;;4987258;28;20038;-67
2023/12/21 08:52:13;;;;;;;124.05;113.80;;;28.50;99.90;;;;;;5000648;28;20550;-66
2023/12/21 08:54:41;;;;;;;135.63;123.68;;;28.50;99.90;;;;;;4984333;28;20031;-67
2023/12/21 08:57:10;;;;;;;147.27;134.35;;;28.50;99.90;;;;;;4984893;28;20018;-65
2023/12/21 08:59:36;;;;;;;136.32;124.35;;;28.40;99.90;;;;;;4985034;28;20042;-65
2023/12/21 09:02:03;;;;;;;149.18;135.68;;;28.50;99.90;;;;;;4984670;28;20399;-65
2023/12/21 09:04:29;;;;;;;140.23;127.70;;;28.50;99.90;;;;;;4984704;28;20490;-65
2023/12/21 09:06:56;;;;;;;164.05;149.55;;;28.50;99.90;;;;;;4985882;28;20427;-65
2023/12/21 09:09:22;;;;;;;130.88;119.70;;;28.40;99.90;;;;;;4984571;28;20515;-66
2023/12/21 09:11:49;;;;;;;127.70;116.38;;;28.40;99.90;;;;;;4983897;28;20030;-64
2023/12/21 09:14:16;;;;;;;153.05;139.73;;;28.40;99.90;;;;;;4986936;28;20479;-67
2023/12/21 09:16:42;;;;;;;120.93;110.35;;;28.30;99.90;;;;;;5000237;28;20034;-65
2023/12/21 09:19:09;;;;;;;159.18;145.35;;;28.30;99.90;;;;;;4988752;28;20162;-66
2023/12/21 09:21:37;;;;;;;154.63;141.45;;;28.30;99.90;;;;;;4984458;28;20019;-63
2023/12/21 09:24:04;;;;;;;139.95;127.95;;;28.30;99.90;;;;;;4985676;28;20019;-64
2023/12/21 09:26:30;;;;;;;109.28;99.38;;;28.20;99.90;;;;;;4984205;28;20464;-64
2023/12/21 09:28:57;;;;;;;134.63;122.75;;;28.20;99.90;;;;;;4984345;28;20022;-64
2023/12/21 09:31:23;;;;;;;123.53;112.68;;;28.30;99.90;;;;;;4985268;28;20068;-66
2023/12/21 09:33:50;;;;;;;156.52;142.45;;;28.20;99.90;;;;;;4983965;28;20054;-67
2023/12/21 09:36:16;;;;;;;159.00;144.73;;;28.20;99.90;;;;;;4984100;28;20025;-68
2023/12/21 09:38:43;;;;;;;120.28;109.75;;;28.20;99.90;;;;;;4985834;28;20022;-67
2023/12/21 09:41:10;;;;;;;148.50;135.80;;;28.20;99.90;;;;;;4984195;28;20051;-68
2023/12/21 09:43:40;;;;;;;149.82;136.75;;;28.20;99.90;;;;;;4984142;28;20088;-68
2023/12/21 09:46:08;;;;;;;126.30;115.20;;;28.20;99.90;;;;;;4973710;28;20053;-68
2023/12/21 09:48:40;;;;;;;151.32;138.25;;;28.10;99.90;;;;;;4984800;28;20030;-68
2023/12/21 09:51:07;;;;;;;;;;;28.10;99.90;;;;;;4983347;28;20457;-66
2023/12/21 09:53:37;;;;;;;117.05;106.93;;;28.10;99.90;;;;;;4984250;28;19906;-68
2023/12/21 09:56:06;;;;;;;123.53;112.95;;;28.10;99.90;;;;;;4985031;28;20054;-68
2023/12/21 09:58:33;;;;;;;126.05;115.32;;;28.10;99.90;;;;;;4983897;28;20094;-66
2023/12/21 10:01:00;;;;;;;127.07;116.10;;;28.10;99.90;;;;;;4983602;28;20030;-68
2023/12/21 10:03:26;;;;;;;102.20;93.30;;;28.00;99.90;;;;;;4985260;28;20014;-69
2023/12/21 10:05:53;;;;;;;131.82;120.28;;;27.90;99.90;;;;;;4985994;28;20070;-70
2023/12/21 10:08:20;;;;;;;119.72;109.40;;;28.00;99.90;;;;;;4986906;28;20050;-69
2023/12/21 10:10:47;;;;;;;125.82;115.03;;;27.90;99.90;;;;;;4987747;28;20484;-70
2023/12/21 10:13:13;;;;;;;125.53;114.70;;;27.90;99.90;;;;;;4988476;28;20195;-66
2023/12/21 10:15:40;;;;;;;135.63;123.85;;;27.90;99.90;;;;;;4989173;28;20027;-70
2023/12/21 10:18:09;;;;;;;124.32;113.63;;;28.00;99.90;;;;;;4989351;28;20090;-71
2023/12/21 10:20:39;;;;;;;109.75;99.85;;;28.00;99.90;;;;;;4988328;28;20149;-66
2023/12/21 10:23:05;;;;;;;152.75;139.75;;;28.00;99.90;;;;;;4982191;28;20039;-67
2023/12/21 10:25:32;;;;;;;143.68;131.48;;;28.10;99.90;;;;;;4979990;28;20026;-66
2023/12/21 10:27:59;;;;;;;101.18;92.65;;;28.00;99.90;;;;;;4979482;28;20058;-66
2023/12/21 10:30:28;;;;;;;114.18;104.25;;;28.00;99.90;;;;;;4979490;28;20070;-67
2023/12/21 10:32:55;;;;;;;136.48;124.57;;;28.10;99.90;;;;;;4979887;28;20018;-66
2023/12/21 10:35:23;;;;;;;150.73;137.65;;;28.00;99.90;;;;;;4979753;28;20019;-65
2023/12/21 10:37:49;;;;;;;149.55;136.43;;;27.90;99.90;;;;;;4982937;28;20399;-67
2023/12/21 10:40:17;;;;;;;156.30;142.80;;;28.00;99.90;;;;;;4983307;28;20051;-65
2023/12/21 10:42:47;;;;;;;146.55;134.23;;;28.00;99.90;;;;;;4984548;28;20030;-67
2023/12/21 10:45:21;;;;;;;148.50;135.60;;;28.00;99.90;;;;;;4984844;28;20018;-69
2023/12/21 10:47:52;;;;;;;136.65;124.25;;;27.90;99.90;;;;;;4983668;28;20065;-66
2023/12/21 10:50:20;;;;;;;153.75;140.07;;;27.90;99.90;;;;;;4997646;28;20014;-64
2023/12/21 10:52:47;;;;;;;167.25;151.98;;;27.80;99.90;;;;;;4991909;28;20034;-67
2023/12/21 10:55:16;;;;;;;138.20;125.65;;;27.80;99.90;;;;;;4983152;28;20057;-67
2023/12/21 10:57:46;;;;;;;132.38;120.10;;;27.80;99.90;;;;;;4982782;28;20035;-66
2023/12/21 11:00:16;;;;;;;163.93;149.15;;;27.70;99.90;;;;;;4982999;28;20483;-66
2023/12/21 11:02:46;;;;;;;143.48;130.90;;;27.70;99.90;;;;;;4982978;28;20042;-67
2023/12/21 11:05:27;;;;;;;115.00;104.57;;;27.70;99.90;;;;;;4984674;28;20019;-68
2023/12/21 11:07:55;;;;;;;145.27;131.93;;;27.70;99.90;;;;;;4984050;28;20019;-67
2023/12/21 11:10:23;;;;;;;148.05;134.55;;;27.70;99.90;;;;;;4982494;28;20023;-67
2023/12/21 11:12:51;;;;;;;134.35;122.45;;;27.70;99.90;;;;;;4981431;28;20026;-67
2023/12/21 11:15:19;;;;;;;146.48;132.57;;;27.80;99.90;;;;;;4974579;28;20109;-67
2023/12/21 11:18:00;;;;;;;147.73;134.23;;;27.80;99.90;;;;;;4974408;28;20035;-66
2023/12/21 11:20:31;;;;;;;172.10;156.25;;;27.70;99.90;;;;;;4975487;28;20085;-68
2023/12/21 11:23:05;;;;;;;153.90;139.80;;;27.70;99.90;;;;;;4985473;28;20416;-65
2023/12/21 11:25:33;;;;;;;170.68;154.45;;;27.80;99.90;;;;;;4994492;28;20034;-67
2023/12/21 11:28:02;;;;;;;159.23;144.38;;;27.80;99.90;;;;;;4988898;28;20523;-65
2023/12/21 11:30:29;;;;;;;166.35;150.77;;;27.80;99.90;;;;;;4978225;28;20091;-67
2023/12/21 11:33:08;;;;;;;171.73;155.95;;;27.80;99.90;;;;;;4977696;28;20053;-65
2023/12/21 11:35:35;;;;;;;170.38;154.20;;;27.70;99.90;;;;;;4977505;28;20362;-66
2023/12/21 11:38:07;;;;;;;167.23;151.60;;;27.80;99.90;;;;;;4977389;28;20085;-65
2023/12/21 11:40:35;;;;;;;164.95;149.93;;;27.80;99.90;;;;;;4982606;28;20100;-66
2023/12/21 11:43:06;;;;;;;181.38;164.50;;;27.70;99.90;;;;;;4991121;28;20037;-67
2023/12/21 11:45:34;;;;;;;147.85;133.93;;;27.60;99.90;;;;;;4986789;28;20361;-64
2023/12/21 11:48:04;;;;;;;143.02;129.50;;;27.70;99.90;;;;;;4985826;28;20191;-67
2023/12/21 11:50:33;;;;;;;144.65;130.82;;;27.70;99.90;;;;;;4986149;28;20062;-73
2023/12/21 11:53:25;;;;;;;125.90;113.82;;;27.70;99.90;;;;;;4985545;28;20052;-70
2023/12/21 11:55:51;;;;;;;159.50;143.77;;;27.70;99.90;;;;;;4977510;28;20111;-73
2023/12/21 11:58:21;;;;;;;122.05;110.03;;;27.60;99.90;;;;;;4985134;28;20398;-72
2023/12/21 12:00:49;;;;;;;150.80;136.75;;;27.60;99.90;;;;;;4985214;28;20030;-75
2023/12/21 12:03:17;;;;;;;155.88;141.00;;;27.60;99.90;;;;;;4985916;28;20408;-71
2023/12/21 12:05:44;;;;;;;137.25;124.65;;;27.60;99.90;;;;;;4986506;28;20040;-71
2023/12/21 12:08:11;;;;;;;165.85;149.77;;;27.60;99.90;;;;;;4992167;28;20027;-69
2023/12/21 12:10:38;;;;;;;135.95;122.75;;;27.50;99.90;;;;;;4976227;28;20340;-69